createdAt,value
2022-09-16T00:00:18.987Z,13.00
2022-09-16T00:02:45.460Z,13.13
2022-09-16T00:05:11.956Z,13.38
2022-09-16T00:07:38.567Z,13.04
2022-09-16T00:10:06.089Z,13.24
2022-09-16T00:12:32.808Z,13.04
2022-09-16T00:14:59.166Z,12.91
2022-09-16T00:17:25.589Z,13.00
2022-09-16T00:19:51.972Z,13.07
2022-09-16T00:22:18.732Z,12.99
2022-09-16T00:24:45.096Z,12.88
2022-09-16T00:27:13.070Z,12.94
2022-09-16T00:29:39.467Z,12.85
2022-09-16T00:32:05.892Z,13.02
2022-09-16T00:34:32.266Z,12.86
2022-09-16T00:36:58.656Z,12.84
2022-09-16T00:39:25.370Z,13.08
2022-09-16T00:41:51.788Z,12.97
2022-09-16T00:44:55.350Z,13.07
2022-09-16T00:47:44.629Z,13.35
2022-09-16T00:50:20.546Z,13.15
2022-09-16T00:52:48.051Z,12.94
2022-09-16T00:55:19.360Z,12.94
2022-09-16T00:57:46.862Z,12.95
2022-09-16T01:00:14.055Z,12.83
2022-09-16T01:02:44.147Z,12.84
2022-09-16T01:05:15.435Z,12.81
2022-09-16T01:07:52.311Z,12.92
2022-09-16T01:10:22.756Z,13.15
2022-09-16T01:12:54.567Z,13.09
2022-09-16T01:15:26.407Z,13.10
2022-09-16T01:18:21.508Z,13.14
2022-09-16T01:20:47.815Z,13.13
2022-09-16T01:23:29.347Z,13.14
2022-09-16T01:26:08.848Z,13.36
2022-09-16T01:28:45.944Z,13.23
2022-09-16T01:31:31.434Z,13.28
2022-09-16T01:34:33.310Z,13.18
2022-09-16T01:37:13.046Z,13.21
2022-09-16T01:39:42.344Z,13.23
2022-09-16T01:42:34.943Z,13.21
2022-09-16T01:45:33.398Z,13.49
2022-09-16T01:48:20.129Z,13.29
2022-09-16T01:50:52.837Z,13.32
2022-09-16T01:53:24.444Z,13.18
2022-09-16T01:56:18.611Z,13.21
2022-09-16T01:58:48.090Z,12.94
2022-09-16T02:01:55.043Z,13.23
2022-09-16T02:04:39.929Z,13.24
2022-09-16T02:07:10.715Z,13.34
2022-09-16T02:09:47.684Z,13.11
2022-09-16T02:12:20.888Z,13.02
2022-09-16T02:14:49.026Z,12.88
2022-09-16T02:17:20.240Z,12.85
2022-09-16T02:19:53.513Z,12.92
2022-09-16T02:22:25.703Z,12.90
2022-09-16T02:24:52.914Z,12.97
2022-09-16T02:27:22.981Z,13.04
2022-09-16T02:29:55.742Z,12.85
2022-09-16T02:32:25.976Z,13.09
2022-09-16T02:34:54.592Z,13.12
2022-09-16T02:37:36.564Z,13.10
2022-09-16T02:40:10.225Z,13.18
2022-09-16T02:42:36.668Z,13.19
2022-09-16T02:45:03.598Z,13.24
2022-09-16T02:47:37.433Z,13.09
2022-09-16T02:50:27.286Z,13.19
2022-09-16T02:53:02.556Z,13.07
2022-09-16T02:55:38.742Z,12.82
2022-09-16T02:58:06.615Z,12.88
2022-09-16T03:00:39.757Z,13.18
2022-09-16T03:03:06.350Z,13.03
2022-09-16T03:05:32.836Z,13.09
2022-09-16T03:08:02.998Z,13.15
2022-09-16T03:10:36.665Z,13.01
2022-09-16T03:13:34.716Z,12.88
2022-09-16T03:16:45.365Z,13.03
2022-09-16T03:19:36.018Z,13.05
2022-09-16T03:22:32.215Z,13.02
2022-09-16T03:25:09.776Z,13.05
2022-09-16T03:27:44.533Z,13.14
2022-09-16T03:30:11.584Z,13.03
2022-09-16T03:32:48.866Z,12.89
2022-09-16T03:35:19.194Z,13.21
2022-09-16T03:37:46.995Z,13.13
2022-09-16T03:40:18.419Z,13.05
2022-09-16T03:42:45.378Z,12.97
2022-09-16T03:45:17.742Z,13.04
2022-09-16T03:47:46.510Z,12.81
2022-09-16T03:50:14.246Z,12.81
2022-09-16T03:52:40.622Z,12.56
2022-09-16T03:55:07.908Z,13.08
2022-09-16T03:57:34.593Z,12.87
2022-09-16T04:00:01.218Z,12.82
2022-09-16T04:02:27.718Z,12.83
2022-09-16T04:04:54.136Z,12.79
2022-09-16T04:07:20.736Z,12.89
2022-09-16T04:09:47.194Z,12.71
2022-09-16T04:12:14.907Z,12.85
2022-09-16T04:14:41.361Z,12.69
2022-09-16T04:17:08.735Z,12.90
2022-09-16T04:19:35.182Z,12.81
2022-09-16T04:22:01.582Z,12.70
2022-09-16T04:24:27.992Z,12.80
2022-09-16T04:26:54.355Z,12.16
2022-09-16T04:29:20.719Z,12.74
2022-09-16T04:31:47.122Z,12.47
2022-09-16T04:34:13.608Z,12.50
2022-09-16T04:36:40.170Z,12.47
2022-09-16T04:39:06.585Z,12.54
2022-09-16T04:41:32.979Z,12.86
2022-09-16T04:44:00.326Z,13.02
2022-09-16T04:46:28.732Z,13.02
2022-09-16T04:48:56.347Z,12.90
2022-09-16T04:51:23.951Z,13.06
2022-09-16T04:53:50.403Z,13.00
2022-09-16T04:56:22.231Z,13.11
2022-09-16T04:58:51.286Z,13.15
2022-09-16T05:01:23.857Z,13.23
2022-09-16T05:03:53.419Z,13.15
2022-09-16T05:06:22.766Z,13.13
2022-09-16T05:08:50.588Z,13.18
2022-09-16T05:11:20.340Z,12.89
2022-09-16T05:13:46.856Z,13.07
2022-09-16T05:16:16.230Z,13.12
2022-09-16T05:18:44.169Z,12.84
2022-09-16T05:21:13.650Z,13.24
2022-09-16T05:23:46.900Z,13.30
2022-09-16T05:26:17.536Z,13.13
2022-09-16T05:28:43.909Z,13.04
2022-09-16T05:31:11.818Z,13.17
2022-09-16T05:33:44.696Z,13.29
2022-09-16T05:36:14.350Z,12.95
2022-09-16T05:38:40.966Z,13.13
2022-09-16T05:41:07.960Z,13.06
2022-09-16T05:43:36.435Z,13.25
2022-09-16T05:46:04.890Z,13.22
2022-09-16T05:48:32.310Z,13.11
2022-09-16T05:51:04.778Z,13.40
2022-09-16T05:53:33.653Z,13.18
2022-09-16T05:56:06.242Z,13.29
2022-09-16T05:58:34.290Z,13.29
2022-09-16T06:01:11.115Z,13.23
2022-09-16T06:03:39.496Z,13.49
2022-09-16T06:06:14.651Z,13.52
2022-09-16T06:08:41.424Z,13.29
2022-09-16T06:11:10.843Z,13.15
2022-09-16T06:13:38.063Z,13.14
2022-09-16T06:16:06.564Z,13.21
2022-09-16T06:18:34.010Z,13.47
2022-09-16T06:21:05.203Z,13.38
2022-09-16T06:23:31.786Z,13.39
2022-09-16T06:26:14.008Z,13.37
2022-09-16T06:28:41.196Z,13.19
2022-09-16T06:31:12.991Z,13.34
2022-09-16T06:33:40.111Z,13.52
2022-09-16T06:36:08.064Z,13.52
2022-09-16T06:38:34.571Z,13.32
2022-09-16T06:41:03.247Z,13.28
2022-09-16T06:43:29.896Z,13.21
2022-09-16T06:46:02.174Z,13.43
2022-09-16T06:48:29.566Z,13.66
2022-09-16T06:51:06.073Z,13.70
2022-09-16T06:53:32.825Z,13.51
2022-09-16T06:56:04.836Z,13.81
2022-09-16T06:58:36.488Z,13.94
2022-09-16T07:01:11.796Z,13.72
2022-09-16T07:03:40.443Z,13.75
2022-09-16T07:06:08.117Z,13.90
2022-09-16T07:08:36.454Z,14.00
2022-09-16T07:11:11.510Z,14.15
2022-09-16T07:13:37.959Z,14.23
2022-09-16T07:16:19.706Z,14.41
2022-09-16T07:18:48.228Z,14.46
2022-09-16T07:21:17.075Z,14.67
2022-09-16T07:23:44.773Z,14.63
2022-09-16T07:26:14.356Z,14.80
2022-09-16T07:28:42.540Z,14.88
2022-09-16T07:31:13.446Z,14.84
2022-09-16T07:33:42.342Z,14.98
2022-09-16T07:36:10.958Z,15.00
2022-09-16T07:38:37.930Z,15.00
2022-09-16T07:41:11.307Z,14.87
2022-09-16T07:43:41.627Z,14.95
2022-09-16T07:46:10.621Z,15.19
2022-09-16T07:48:37.863Z,15.22
2022-09-16T07:51:10.551Z,15.01
2022-09-16T07:53:37.651Z,14.75
2022-09-16T07:56:06.810Z,14.67
2022-09-16T07:58:33.351Z,14.46
2022-09-16T08:01:04.257Z,14.76
2022-09-16T08:03:32.606Z,14.86
2022-09-16T08:06:05.760Z,14.77
2022-09-16T08:08:33.038Z,14.94
2022-09-16T08:11:00.642Z,14.89
2022-09-16T08:13:29.211Z,14.78
2022-09-16T08:15:59.368Z,14.94
2022-09-16T08:18:25.772Z,14.67
2022-09-16T08:20:52.134Z,14.55
2022-09-16T08:23:18.937Z,14.74
2022-09-16T08:25:45.540Z,14.82
2022-09-16T08:28:16.608Z,14.83
2022-09-16T08:30:43.925Z,14.79
2022-09-16T08:33:10.790Z,14.46
2022-09-16T08:35:37.217Z,14.06
2022-09-16T08:38:03.782Z,13.31
2022-09-16T08:40:36.884Z,13.44
2022-09-16T08:43:12.506Z,13.65
2022-09-16T08:45:41.960Z,13.78
2022-09-16T08:48:28.559Z,13.65
2022-09-16T08:50:58.918Z,13.48
2022-09-16T08:53:36.847Z,13.77
2022-09-16T08:56:07.438Z,13.52
2022-09-16T08:58:45.994Z,13.27
2022-09-16T09:01:23.376Z,13.34
2022-09-16T09:03:50.045Z,13.05
2022-09-16T09:07:00.044Z,13.48
2022-09-16T09:09:41.605Z,13.08
2022-09-16T09:12:27.083Z,13.09
2022-09-16T09:15:17.330Z,13.16
2022-09-16T09:18:10.810Z,13.33
2022-09-16T09:20:47.899Z,13.08
2022-09-16T09:23:47.387Z,13.16
2022-09-16T09:26:22.131Z,13.31
2022-09-16T09:29:00.523Z,13.37
2022-09-16T09:31:33.598Z,13.39
2022-09-16T09:34:26.731Z,13.06
2022-09-16T09:36:56.010Z,13.36
2022-09-16T09:39:59.738Z,13.44
2022-09-16T09:42:34.149Z,13.37
2022-09-16T09:45:05.432Z,13.49
2022-09-16T09:47:47.921Z,13.69
2022-09-16T09:50:20.544Z,13.71
2022-09-16T09:53:08.995Z,13.79
2022-09-16T09:55:35.619Z,13.58
2022-09-16T09:58:12.159Z,13.63
2022-09-16T10:00:38.598Z,13.82
2022-09-16T10:03:14.716Z,14.22
2022-09-16T10:05:42.214Z,14.49
2022-09-16T10:08:20.874Z,15.07
2022-09-16T10:10:53.794Z,14.75
2022-09-16T10:13:21.671Z,14.59
2022-09-16T10:15:53.282Z,14.56
2022-09-16T10:18:21.843Z,14.91
2022-09-16T10:21:06.982Z,14.80
2022-09-16T10:23:35.324Z,14.74
2022-09-16T10:26:20.719Z,14.85
2022-09-16T10:28:55.531Z,14.49
2022-09-16T10:31:24.267Z,14.51
2022-09-16T10:33:50.823Z,14.50
2022-09-16T10:36:27.759Z,14.29
2022-09-16T10:39:02.246Z,14.63
2022-09-16T10:41:42.544Z,14.64
2022-09-16T10:44:21.433Z,14.49
2022-09-16T10:46:54.365Z,14.78
2022-09-16T10:49:26.580Z,15.19
2022-09-16T10:52:14.616Z,15.30
2022-09-16T10:54:41.288Z,14.92
2022-09-16T10:57:21.714Z,15.07
2022-09-16T10:59:59.630Z,15.42
2022-09-16T11:02:44.106Z,15.53
2022-09-16T11:05:26.211Z,15.64
2022-09-16T11:08:02.213Z,15.26
2022-09-16T11:10:46.935Z,15.13
2022-09-16T11:13:32.819Z,15.33
2022-09-16T11:16:17.614Z,15.54
2022-09-16T11:18:52.868Z,15.88
2022-09-16T11:21:46.960Z,15.71
2022-09-16T11:24:32.238Z,15.98
2022-09-16T11:27:13.391Z,15.61
2022-09-16T11:30:03.503Z,15.68
2022-09-16T11:32:46.529Z,15.91
2022-09-16T11:35:32.348Z,14.72
2022-09-16T11:38:24.817Z,14.52
2022-09-16T11:41:00.204Z,13.23
2022-09-16T11:43:44.851Z,12.53
2022-09-16T11:46:30.151Z,12.36
2022-09-16T11:49:14.964Z,12.07
2022-09-16T11:51:53.508Z,12.12
2022-09-16T11:54:33.636Z,12.08
2022-09-16T11:57:06.131Z,11.93
2022-09-16T11:59:44.724Z,11.86
2022-09-16T12:02:20.763Z,11.95
2022-09-16T12:05:07.036Z,11.79
2022-09-16T12:07:45.212Z,11.59
2022-09-16T12:10:22.672Z,11.87
2022-09-16T12:12:54.207Z,11.71
2022-09-16T12:15:26.485Z,11.25
2022-09-16T12:18:01.850Z,11.10
2022-09-16T12:20:37.135Z,11.29
2022-09-16T12:23:17.419Z,11.63
2022-09-16T12:26:14.156Z,11.45
2022-09-16T12:29:06.509Z,11.63
2022-09-16T12:31:53.609Z,11.39
2022-09-16T12:34:26.514Z,11.33
2022-09-16T12:37:00.908Z,11.38
2022-09-16T12:39:28.668Z,11.03
2022-09-16T12:42:32.730Z,11.30
2022-09-16T12:45:22.080Z,11.11
2022-09-16T12:48:19.663Z,10.99
2022-09-16T12:50:56.668Z,11.07
2022-09-16T12:53:50.021Z,10.97
2022-09-16T12:56:19.388Z,10.96
2022-09-16T12:59:17.664Z,10.90
2022-09-16T13:01:50.325Z,10.70
2022-09-16T13:04:31.102Z,10.67
2022-09-16T13:07:05.053Z,11.08
2022-09-16T13:09:38.838Z,10.82
2022-09-16T13:15:07.308Z,10.79
2022-09-16T13:17:42.827Z,10.84
2022-09-16T13:20:12.186Z,10.98
2022-09-16T13:22:47.545Z,10.96
2022-09-16T13:25:13.883Z,11.05
2022-09-16T13:27:56.057Z,11.09
2022-09-16T13:30:36.410Z,11.03
2022-09-16T13:33:08.823Z,11.25
2022-09-16T13:35:38.996Z,10.97
2022-09-16T13:38:23.183Z,10.84
2022-09-16T13:41:01.439Z,10.82
2022-09-16T13:43:46.786Z,10.96
2022-09-16T13:46:27.449Z,10.95
2022-09-16T13:49:04.055Z,10.90
2022-09-16T13:51:36.024Z,11.05
2022-09-16T13:54:04.168Z,11.36
2022-09-16T13:56:42.113Z,11.22
2022-09-16T13:59:33.414Z,10.97
2022-09-16T14:02:06.504Z,10.79
2022-09-16T14:04:54.320Z,10.72
2022-09-16T14:07:26.768Z,11.05
2022-09-16T14:10:04.842Z,11.08
2022-09-16T14:13:04.195Z,11.01
2022-09-16T14:15:36.652Z,10.88
2022-09-16T14:18:03.976Z,10.90
2022-09-16T14:20:33.130Z,11.15
2022-09-16T14:23:17.482Z,11.02
2022-09-16T14:25:43.852Z,11.08
2022-09-16T14:28:22.069Z,11.36
2022-09-16T14:30:52.866Z,11.22
2022-09-16T14:33:23.369Z,11.41
2022-09-16T14:35:52.182Z,11.39
2022-09-16T14:38:44.494Z,11.19
2022-09-16T14:41:10.559Z,11.03
2022-09-16T14:43:38.768Z,11.45
2022-09-16T14:46:07.833Z,11.42
2022-09-16T14:48:38.971Z,11.58
2022-09-16T14:51:16.692Z,11.67
2022-09-16T14:54:11.655Z,11.52
2022-09-16T14:56:39.038Z,11.35
2022-09-16T14:59:06.633Z,11.61
2022-09-16T15:01:33.060Z,11.59
2022-09-16T15:04:23.529Z,11.72
2022-09-16T15:06:58.827Z,11.59
2022-09-16T15:09:45.228Z,11.46
2022-09-16T15:12:29.505Z,11.50
2022-09-16T15:14:57.175Z,11.29
2022-09-16T15:17:27.327Z,11.45
2022-09-16T15:19:58.954Z,11.10
2022-09-16T15:22:26.869Z,11.04
2022-09-16T15:24:56.757Z,11.29
2022-09-16T15:27:25.933Z,11.22
2022-09-16T15:30:01.070Z,11.07
2022-09-16T15:32:31.624Z,10.99
2022-09-16T15:35:04.153Z,11.14
2022-09-16T15:37:33.098Z,11.12
2022-09-16T15:40:28.749Z,11.05
2022-09-16T15:43:27.899Z,10.91
2022-09-16T15:46:00.253Z,10.92
2022-09-16T15:48:31.747Z,10.94
2022-09-16T15:51:06.281Z,10.90
2022-09-16T15:53:32.599Z,11.31
2022-09-16T15:56:04.371Z,11.05
2022-09-16T15:58:45.644Z,10.79
2022-09-16T16:01:30.331Z,10.84
2022-09-16T16:03:59.040Z,10.79
2022-09-16T16:06:51.768Z,10.82
2022-09-16T16:09:28.682Z,10.78
2022-09-16T16:11:56.021Z,10.86
2022-09-16T16:14:24.499Z,10.95
2022-09-16T16:17:11.872Z,10.70
2022-09-16T16:19:39.089Z,10.96
2022-09-16T16:22:06.939Z,11.16
2022-09-16T16:24:33.811Z,11.12
2022-09-16T16:27:00.481Z,11.11
2022-09-16T16:29:27.119Z,11.19
2022-09-16T16:32:04.404Z,11.25
2022-09-16T16:34:35.658Z,11.25
2022-09-16T16:37:02.981Z,11.24
2022-09-16T16:39:35.178Z,11.19
2022-09-16T16:42:04.974Z,11.36
2022-09-16T16:44:31.857Z,11.27
2022-09-16T16:46:59.383Z,11.34
2022-09-16T16:49:29.867Z,11.14
2022-09-16T16:52:09.611Z,11.26
2022-09-16T16:54:43.676Z,11.22
2022-09-16T16:57:11.132Z,11.19
2022-09-16T16:59:38.607Z,11.06
2022-09-16T17:02:05.501Z,11.03
2022-09-16T17:04:31.882Z,11.13
2022-09-16T17:07:23.980Z,11.14
2022-09-16T17:09:49.351Z,11.23
2022-09-16T17:12:18.132Z,11.12
2022-09-16T17:14:44.684Z,11.15
2022-09-16T17:17:11.142Z,11.19
2022-09-16T17:19:38.546Z,11.13
2022-09-16T17:22:05.112Z,11.21
2022-09-16T17:24:34.528Z,11.14
2022-09-16T17:27:01.598Z,10.93
2022-09-16T17:29:29.245Z,10.68
2022-09-16T17:32:00.588Z,10.34
2022-09-16T17:34:28.078Z,10.48
2022-09-16T17:36:57.524Z,10.46
2022-09-16T17:39:24.112Z,10.30
2022-09-16T17:41:51.570Z,10.49
2022-09-16T17:44:19.542Z,10.54
2022-09-16T17:46:48.119Z,10.70
2022-09-16T17:49:22.559Z,10.71
2022-09-16T17:51:50.263Z,10.62
2022-09-16T17:54:17.333Z,10.84
2022-09-16T17:56:47.959Z,10.75
2022-09-16T17:59:17.191Z,10.71
2022-09-16T18:01:43.968Z,10.75
2022-09-16T18:04:11.003Z,10.67
2022-09-16T18:06:45.607Z,10.60
2022-09-16T18:09:14.299Z,10.53
2022-09-16T18:11:40.828Z,10.41
2022-09-16T18:14:10.120Z,10.31
2022-09-16T18:16:36.599Z,10.21
2022-09-16T18:19:04.434Z,10.35
2022-09-16T18:21:31.722Z,10.42
2022-09-16T18:24:01.051Z,10.33
2022-09-16T18:26:28.714Z,10.67
2022-09-16T18:29:12.646Z,10.64
2022-09-16T18:31:41.710Z,10.73
2022-09-16T18:34:08.363Z,10.68
2022-09-16T18:36:36.814Z,10.65
2022-09-16T18:39:04.390Z,10.69
2022-09-16T18:41:34.965Z,10.58
2022-09-16T18:44:04.887Z,10.42
2022-09-16T18:46:33.746Z,10.42
2022-09-16T18:49:00.768Z,9.92
2022-09-16T18:51:38.512Z,9.80
2022-09-16T18:54:11.953Z,9.79
2022-09-16T18:56:40.020Z,9.68
2022-09-16T18:59:23.851Z,9.89
2022-09-16T19:01:53.445Z,9.77
2022-09-16T19:04:23.240Z,9.71
2022-09-16T19:06:51.954Z,9.93
2022-09-16T19:09:20.665Z,9.98
2022-09-16T19:11:47.827Z,10.26
2022-09-16T19:14:14.838Z,10.03
2022-09-16T19:16:43.082Z,10.05
2022-09-16T19:19:11.248Z,10.10
2022-09-16T19:21:38.086Z,9.97
2022-09-16T19:24:07.525Z,9.98
2022-09-16T19:26:36.299Z,10.06
2022-09-16T19:29:06.630Z,9.53
2022-09-16T19:31:35.194Z,9.33
2022-09-16T19:34:02.076Z,9.59
2022-09-16T19:36:30.531Z,8.89
2022-09-16T19:38:59.346Z,9.82
2022-09-16T19:41:29.214Z,9.67
2022-09-16T19:43:58.310Z,9.98
2022-09-16T19:46:25.777Z,9.83
2022-09-16T19:48:52.879Z,9.76
2022-09-16T19:51:22.752Z,9.30
2022-09-16T19:53:50.218Z,9.70
2022-09-16T19:56:21.326Z,9.80
2022-09-16T19:58:48.225Z,9.53
2022-09-16T20:01:18.257Z,9.64
2022-09-16T20:03:45.746Z,9.51
2022-09-16T20:06:14.439Z,9.65
2022-09-16T20:08:42.727Z,9.59
2022-09-16T20:11:21.589Z,9.53
2022-09-16T20:14:00.218Z,9.28
2022-09-16T20:16:28.879Z,9.52
2022-09-16T20:18:55.481Z,9.15
2022-09-16T20:21:26.838Z,9.24
2022-09-16T20:23:54.316Z,9.23
2022-09-16T20:26:21.981Z,9.20
2022-09-16T20:28:51.354Z,9.07
2022-09-16T20:31:29.188Z,8.93
2022-09-16T20:33:55.931Z,8.77
2022-09-16T20:36:24.357Z,8.82
2022-09-16T20:38:51.134Z,8.63
2022-09-16T20:41:23.734Z,8.86
2022-09-16T20:43:51.039Z,8.94
2022-09-16T20:46:21.647Z,8.97
2022-09-16T20:48:49.116Z,8.97
2022-09-16T20:51:18.154Z,8.85
2022-09-16T20:53:49.870Z,9.23
2022-09-16T20:56:17.518Z,8.82
2022-09-16T20:58:44.531Z,8.75
2022-09-16T21:01:14.989Z,8.86
2022-09-16T21:03:42.821Z,8.97
2022-09-16T21:06:12.274Z,8.94
2022-09-16T21:08:39.760Z,8.82
2022-09-16T21:11:09.264Z,8.79
2022-09-16T21:13:35.713Z,8.83
2022-09-16T21:16:02.641Z,8.85
2022-09-16T21:18:30.404Z,9.21
2022-09-16T21:21:01.839Z,9.02
2022-09-16T21:23:28.982Z,8.89
2022-09-16T21:25:56.017Z,8.89
2022-09-16T21:28:23.303Z,9.04
2022-09-16T21:30:59.621Z,8.96
2022-09-16T21:33:27.296Z,8.75
2022-09-16T21:35:53.854Z,8.84
2022-09-16T21:38:20.839Z,8.91
2022-09-16T21:40:54.722Z,8.67
2022-09-16T21:43:21.153Z,8.82
2022-09-16T21:45:48.033Z,8.81
2022-09-16T21:48:16.548Z,8.92
2022-09-16T21:50:42.930Z,8.78
2022-09-16T21:53:09.361Z,8.95
2022-09-16T21:55:35.747Z,8.98
2022-09-16T21:58:02.120Z,8.88
2022-09-16T22:00:30.350Z,8.85
2022-09-16T22:02:57.100Z,9.01
2022-09-16T22:05:23.903Z,8.92
2022-09-16T22:07:50.378Z,8.86
2022-09-16T22:10:16.970Z,9.08
2022-09-16T22:12:43.865Z,9.08
2022-09-16T22:15:10.550Z,8.87
2022-09-16T22:17:36.938Z,8.98
2022-09-16T22:20:03.608Z,8.98
2022-09-16T22:22:30.956Z,9.15
2022-09-16T22:24:57.311Z,9.16
2022-09-16T22:27:23.725Z,9.06
2022-09-16T22:29:50.106Z,9.39
2022-09-16T22:32:16.468Z,9.36
2022-09-16T22:34:42.856Z,9.50
2022-09-16T22:37:09.277Z,9.41
2022-09-16T22:39:35.676Z,9.15
2022-09-16T22:42:02.065Z,9.22
2022-09-16T22:44:28.514Z,9.30
2022-09-16T22:46:54.938Z,9.22
2022-09-16T22:49:21.324Z,9.22
2022-09-16T22:51:51.858Z,9.42
2022-09-16T22:54:18.283Z,9.27
2022-09-16T22:56:44.679Z,9.13
2022-09-16T22:59:19.739Z,9.19
2022-09-16T23:01:47.012Z,9.31
2022-09-16T23:04:13.598Z,9.16
2022-09-16T23:06:40.137Z,9.47
2022-09-16T23:09:09.122Z,9.29
2022-09-16T23:11:36.045Z,9.33
2022-09-16T23:14:04.078Z,9.10
2022-09-16T23:16:33.326Z,8.50
2022-09-16T23:19:02.034Z,9.13
2022-09-16T23:21:29.155Z,9.12
2022-09-16T23:23:57.461Z,9.06
2022-09-16T23:26:27.207Z,9.05
2022-09-16T23:28:56.129Z,9.12
2022-09-16T23:31:25.507Z,9.21
2022-09-16T23:33:53.174Z,8.89
2022-09-16T23:36:20.200Z,8.98
2022-09-16T23:38:48.110Z,9.04
2022-09-16T23:41:20.564Z,9.07
2022-09-16T23:43:48.714Z,9.12
2022-09-16T23:46:19.130Z,9.41
2022-09-16T23:48:46.110Z,9.39
2022-09-16T23:51:14.036Z,9.36
2022-09-16T23:53:42.376Z,9.39
2022-09-16T23:56:11.032Z,9.35
2022-09-16T23:58:37.856Z,9.00
